createdAt,value
2018-03-20T00:00:59.841Z,80.48
2018-03-20T00:01:59.890Z,80.19
2018-03-20T00:02:59.939Z,80.53
2018-03-20T00:03:59.989Z,80.29
2018-03-20T00:05:00.040Z,79.44
2018-03-20T00:06:00.087Z,80.00
2018-03-20T00:07:00.137Z,80.82
2018-03-20T00:08:00.189Z,81.38
2018-03-20T00:09:00.235Z,80.63
2018-03-20T00:10:00.285Z,79.35
2018-03-20T00:11:00.335Z,80.53
2018-03-20T00:12:00.385Z,80.15
2018-03-20T00:13:00.433Z,79.53
2018-03-20T00:14:00.481Z,78.59
2018-03-20T00:15:00.531Z,79.44
2018-03-20T00:16:00.581Z,80.06
2018-03-20T00:17:00.631Z,81.38
2018-03-20T00:18:00.680Z,81.67
2018-03-20T00:19:00.730Z,81.95
2018-03-20T00:20:00.778Z,82.14
2018-03-20T00:21:00.827Z,81.20
2018-03-20T00:22:00.877Z,80.25
2018-03-20T00:23:00.926Z,79.49
2018-03-20T00:24:00.974Z,80.44
2018-03-20T00:25:01.024Z,81.01
2018-03-20T00:26:01.077Z,81.29
2018-03-20T00:27:01.124Z,81.10
2018-03-20T00:28:01.172Z,80.53
2018-03-20T00:29:01.221Z,79.97
2018-03-20T00:30:01.270Z,80.15
2018-03-20T00:31:01.321Z,79.68
2018-03-20T00:32:01.368Z,79.78
2018-03-20T00:33:01.419Z,80.63
2018-03-20T00:34:01.467Z,81.10
2018-03-20T00:35:01.518Z,81.20
2018-03-20T00:36:01.565Z,80.53
2018-03-20T00:37:01.616Z,81.10
2018-03-20T00:38:01.665Z,80.63
2018-03-20T00:39:01.714Z,81.20
2018-03-20T00:40:01.764Z,80.72
2018-03-20T00:41:01.811Z,80.72
2018-03-20T00:42:01.865Z,80.82
2018-03-20T00:43:01.911Z,80.06
2018-03-20T00:44:01.961Z,80.25
2018-03-20T00:45:02.014Z,80.34
2018-03-20T00:46:02.060Z,80.15
2018-03-20T00:47:02.108Z,80.72
2018-03-20T00:48:02.156Z,80.25
2018-03-20T00:49:02.206Z,80.15
2018-03-20T00:50:02.256Z,80.06
2018-03-20T00:51:02.305Z,80.06
2018-03-20T00:52:02.354Z,80.15
2018-03-20T00:53:02.404Z,80.44
2018-03-20T00:54:02.451Z,81.20
2018-03-20T00:55:02.502Z,81.29
2018-03-20T00:56:02.557Z,81.01
2018-03-20T00:57:02.599Z,81.29
2018-03-20T00:58:02.648Z,82.04
2018-03-20T00:59:02.697Z,82.23
2018-03-20T01:00:02.746Z,82.23
2018-03-20T01:01:02.796Z,82.51
2018-03-20T01:02:02.845Z,82.61
2018-03-20T01:03:02.893Z,82.14
2018-03-20T01:04:02.947Z,81.38
2018-03-20T01:05:02.992Z,80.53
2018-03-20T01:06:03.041Z,80.63
2018-03-20T01:07:03.093Z,80.34
2018-03-20T01:08:03.289Z,80.91
2018-03-20T01:09:03.188Z,81.95
2018-03-20T01:10:03.238Z,82.89
2018-03-20T01:11:03.288Z,82.14
2018-03-20T01:12:03.335Z,81.76
2018-03-20T01:13:03.385Z,82.14
2018-03-20T01:14:03.434Z,81.95
2018-03-20T01:15:03.484Z,82.42
2018-03-20T01:16:03.531Z,81.20
2018-03-20T01:17:03.583Z,80.53
2018-03-20T01:18:03.630Z,80.25
2018-03-20T01:19:03.684Z,79.97
2018-03-20T01:20:03.727Z,80.72
2018-03-20T01:21:03.776Z,81.10
2018-03-20T01:22:03.824Z,81.85
2018-03-20T01:23:03.875Z,82.04
2018-03-20T01:24:03.923Z,83.27
2018-03-20T01:25:03.978Z,83.55
2018-03-20T01:26:04.021Z,83.74
2018-03-20T01:27:04.070Z,83.65
2018-03-20T01:28:04.119Z,84.03
2018-03-20T01:29:04.167Z,84.12
2018-03-20T01:30:04.215Z,83.84
2018-03-20T01:31:04.437Z,83.84
2018-03-20T01:32:04.314Z,83.36
2018-03-20T01:33:04.363Z,83.08
2018-03-20T01:34:04.413Z,82.42
2018-03-20T01:35:04.462Z,81.67
2018-03-20T01:36:04.510Z,81.48
2018-03-20T01:37:04.560Z,80.72
2018-03-20T01:38:04.607Z,81.10
2018-03-20T01:39:04.656Z,81.48
2018-03-20T01:40:04.704Z,81.76
2018-03-20T01:41:04.753Z,82.99
2018-03-20T01:42:04.803Z,83.36
2018-03-20T01:43:04.852Z,84.31
2018-03-20T01:44:04.900Z,83.74
2018-03-20T01:45:04.949Z,84.41
2018-03-20T01:46:04.999Z,84.41
2018-03-20T01:47:05.048Z,84.59
2018-03-20T01:48:05.096Z,84.69
2018-03-20T01:49:05.146Z,84.41
2018-03-20T01:50:05.192Z,84.41
2018-03-20T01:51:05.243Z,84.59
2018-03-20T01:52:05.291Z,84.12
2018-03-20T01:53:05.338Z,84.12
2018-03-20T01:54:05.390Z,83.74
2018-03-20T01:55:05.438Z,83.27
2018-03-20T01:56:05.485Z,84.12
2018-03-20T01:57:05.533Z,84.41
2018-03-20T01:58:05.582Z,84.41
2018-03-20T01:59:05.783Z,84.50
2018-03-20T02:00:05.679Z,84.50
2018-03-20T02:01:05.729Z,84.27
2018-03-20T02:02:05.778Z,84.31
2018-03-20T02:03:05.827Z,84.41
2018-03-20T02:04:05.883Z,84.31
2018-03-20T02:05:05.924Z,84.64
2018-03-20T02:06:05.971Z,84.55
2018-03-20T02:07:06.021Z,84.17
2018-03-20T02:08:06.067Z,84.41
2018-03-20T02:09:06.117Z,84.45
2018-03-20T02:10:06.170Z,83.46
2018-03-20T02:11:06.214Z,84.08
2018-03-20T02:12:06.261Z,83.51
2018-03-20T02:13:06.314Z,84.08
2018-03-20T02:14:06.361Z,84.27
2018-03-20T02:15:06.408Z,84.36
2018-03-20T02:16:06.456Z,84.55
2018-03-20T02:17:06.505Z,84.45
2018-03-20T02:18:06.553Z,85.11
2018-03-20T02:19:06.603Z,84.64
2018-03-20T02:20:06.650Z,84.64
2018-03-20T02:21:06.698Z,84.36
2018-03-20T02:22:06.747Z,84.17
2018-03-20T02:23:06.796Z,84.74
2018-03-20T02:24:06.843Z,84.36
2018-03-20T02:25:06.891Z,84.55
2018-03-20T02:26:06.941Z,85.21
2018-03-20T02:27:06.991Z,85.30
2018-03-20T02:28:07.037Z,85.21
2018-03-20T02:29:07.086Z,85.59
2018-03-20T02:30:07.134Z,85.96
2018-03-20T02:31:07.182Z,85.87
2018-03-20T02:32:07.234Z,85.96
2018-03-20T02:33:07.285Z,85.68
2018-03-20T02:34:07.328Z,85.68
2018-03-20T02:35:07.376Z,85.68
2018-03-20T02:36:07.422Z,85.30
2018-03-20T02:37:07.475Z,85.02
2018-03-20T02:38:07.521Z,84.74
2018-03-20T02:39:07.569Z,85.11
2018-03-20T02:40:07.630Z,84.45
2018-03-20T02:41:07.676Z,83.70
2018-03-20T02:42:07.713Z,83.80
2018-03-20T02:43:07.766Z,83.80
2018-03-20T02:44:07.813Z,84.27
2018-03-20T02:45:07.861Z,83.70
2018-03-20T02:46:07.908Z,84.36
2018-03-20T02:47:07.958Z,84.08
2018-03-20T02:48:08.005Z,85.21
2018-03-20T02:49:08.063Z,85.87
2018-03-20T02:50:08.105Z,85.68
2018-03-20T02:51:08.194Z,85.40
2018-03-20T02:52:08.199Z,85.30
2018-03-20T02:53:08.246Z,86.06
2018-03-20T02:54:08.295Z,86.25
2018-03-20T02:55:08.352Z,86.82
2018-03-20T02:56:08.389Z,87.00
2018-03-20T02:57:08.451Z,86.72
2018-03-20T02:58:08.488Z,87.10
2018-03-20T02:59:08.536Z,86.63
2018-03-20T03:00:08.582Z,85.11
2018-03-20T03:01:08.632Z,84.55
2018-03-20T03:02:08.679Z,85.21
2018-03-20T03:03:08.728Z,84.92
2018-03-20T03:04:08.780Z,85.87
2018-03-20T03:05:08.834Z,86.63
2018-03-20T03:06:08.873Z,87.00
2018-03-20T03:07:08.920Z,87.38
2018-03-20T03:08:08.969Z,87.85
2018-03-20T03:09:09.018Z,87.76
2018-03-20T03:10:09.065Z,88.04
2018-03-20T03:11:09.114Z,87.85
2018-03-20T03:12:09.160Z,87.66
2018-03-20T03:13:09.210Z,87.76
2018-03-20T03:14:09.257Z,87.57
2018-03-20T03:15:09.306Z,87.57
2018-03-20T03:16:09.354Z,87.76
2018-03-20T03:17:09.400Z,87.85
2018-03-20T03:18:09.448Z,88.04
2018-03-20T03:19:09.498Z,88.70
2018-03-20T03:20:09.545Z,88.42
2018-03-20T03:21:09.598Z,87.66
2018-03-20T03:22:09.642Z,87.66
2018-03-20T03:23:09.691Z,86.91
2018-03-20T03:24:09.738Z,86.06
2018-03-20T03:25:09.786Z,85.30
2018-03-20T03:26:09.833Z,84.45
2018-03-20T03:27:09.884Z,84.27
2018-03-20T03:28:09.930Z,84.64
2018-03-20T03:29:09.978Z,84.92
2018-03-20T03:30:10.038Z,85.21
2018-03-20T03:31:10.075Z,85.96
2018-03-20T03:32:10.121Z,86.72
2018-03-20T03:33:10.170Z,87.66
2018-03-20T03:34:10.218Z,87.95
2018-03-20T03:35:10.266Z,87.48
2018-03-20T03:36:10.312Z,86.82
2018-03-20T03:37:10.562Z,85.96
2018-03-20T03:38:10.409Z,86.06
2018-03-20T03:39:10.458Z,85.11
2018-03-20T03:40:10.505Z,85.02
2018-03-20T03:41:10.553Z,84.64
2018-03-20T03:42:10.752Z,85.11
2018-03-20T03:43:10.650Z,85.11
2018-03-20T03:44:10.697Z,85.30
2018-03-20T03:45:10.745Z,85.68
2018-03-20T03:46:10.793Z,85.49
2018-03-20T03:47:10.842Z,86.34
2018-03-20T03:48:10.889Z,86.87
2018-03-20T03:49:10.937Z,87.52
2018-03-20T03:50:10.986Z,87.81
2018-03-20T03:51:11.034Z,88.37
2018-03-20T03:52:11.084Z,88.94
2018-03-20T03:53:11.128Z,88.65
2018-03-20T03:54:11.176Z,88.37
2018-03-20T03:55:11.232Z,88.94
2018-03-20T03:56:11.272Z,89.22
2018-03-20T03:57:11.320Z,88.84
2018-03-20T03:58:11.369Z,88.56
2018-03-20T03:59:11.423Z,89.41
2018-03-20T04:00:11.479Z,88.94
2018-03-20T04:01:11.513Z,89.03
2018-03-20T04:02:11.561Z,89.22
2018-03-20T04:03:11.609Z,89.41
2018-03-20T04:04:11.680Z,88.75
2018-03-20T04:05:11.706Z,88.65
2018-03-20T04:06:11.752Z,88.75
2018-03-20T04:07:11.801Z,88.94
2018-03-20T04:08:11.848Z,88.94
2018-03-20T04:09:11.896Z,88.94
2018-03-20T04:10:11.943Z,88.65
2018-03-20T04:11:11.992Z,88.75
2018-03-20T04:12:12.039Z,88.75
2018-03-20T04:13:12.087Z,89.03
2018-03-20T04:14:12.136Z,89.32
2018-03-20T04:15:12.183Z,89.79
2018-03-20T04:16:12.229Z,90.07
2018-03-20T04:17:12.277Z,90.64
2018-03-20T04:18:12.387Z,90.26
2018-03-20T04:19:12.374Z,90.17
2018-03-20T04:20:12.420Z,90.64
2018-03-20T04:21:12.468Z,91.20
2018-03-20T04:22:12.667Z,90.64
2018-03-20T04:23:12.566Z,90.07
2018-03-20T04:24:12.612Z,90.36
2018-03-20T04:25:12.660Z,90.26
2018-03-20T04:26:12.708Z,90.45
2018-03-20T04:27:12.757Z,90.36
2018-03-20T04:28:12.803Z,90.36
2018-03-20T04:29:12.850Z,90.17
2018-03-20T04:30:12.900Z,90.17
2018-03-20T04:31:12.959Z,89.51
2018-03-20T04:32:12.993Z,88.28
2018-03-20T04:33:13.041Z,88.47
2018-03-20T04:34:13.090Z,88.28
2018-03-20T04:35:13.136Z,87.71
2018-03-20T04:36:13.185Z,87.52
2018-03-20T04:37:13.232Z,87.90
2018-03-20T04:38:13.281Z,88.09
2018-03-20T04:39:13.328Z,87.99
2018-03-20T04:40:13.375Z,89.03
2018-03-20T04:41:13.424Z,89.60
2018-03-20T04:42:13.470Z,89.69
2018-03-20T04:43:13.517Z,90.73
2018-03-20T04:44:13.566Z,90.17
2018-03-20T04:45:13.614Z,89.60
2018-03-20T04:46:13.661Z,89.41
2018-03-20T04:47:13.710Z,87.62
2018-03-20T04:48:13.757Z,86.77
2018-03-20T04:49:13.804Z,86.77
2018-03-20T04:50:13.852Z,86.77
2018-03-20T04:51:13.905Z,86.77
2018-03-20T04:52:13.947Z,86.49
2018-03-20T04:53:13.994Z,86.58
2018-03-20T04:54:14.042Z,86.21
2018-03-20T04:55:14.089Z,86.11
2018-03-20T04:56:14.135Z,86.02
2018-03-20T04:57:14.184Z,85.92
2018-03-20T04:58:14.230Z,86.49
2018-03-20T04:59:14.285Z,86.49
2018-03-20T05:00:14.355Z,86.40
2018-03-20T05:01:14.394Z,86.68
2018-03-20T05:02:14.420Z,85.83
2018-03-20T05:03:14.468Z,85.83
2018-03-20T05:04:14.515Z,85.92
2018-03-20T05:05:14.563Z,86.11
2018-03-20T05:06:14.614Z,85.17
2018-03-20T05:07:14.762Z,85.64
2018-03-20T05:08:14.707Z,86.87
2018-03-20T05:09:14.751Z,87.24
2018-03-20T05:10:14.804Z,86.30
2018-03-20T05:11:14.851Z,86.11
2018-03-20T05:12:14.930Z,85.92
2018-03-20T05:13:14.941Z,85.26
2018-03-20T05:14:14.998Z,85.54
2018-03-20T05:15:15.036Z,85.17
2018-03-20T05:16:15.085Z,84.32
2018-03-20T05:17:15.137Z,84.32
2018-03-20T05:18:15.180Z,84.22
2018-03-20T05:19:15.226Z,83.94
2018-03-20T05:20:15.274Z,84.32
2018-03-20T05:21:15.321Z,84.51
2018-03-20T05:22:15.368Z,84.51
2018-03-20T05:23:15.566Z,84.32
2018-03-20T05:24:15.463Z,84.32
2018-03-20T05:25:15.511Z,85.07
2018-03-20T05:26:15.559Z,84.41
2018-03-20T05:27:15.611Z,84.51
2018-03-20T05:28:15.652Z,83.75
2018-03-20T05:29:15.701Z,84.45
2018-03-20T05:30:15.748Z,83.56
2018-03-20T05:31:15.801Z,83.98
2018-03-20T05:32:15.849Z,84.27
2018-03-20T05:33:15.891Z,84.36
2018-03-20T05:34:15.940Z,85.11
2018-03-20T05:35:15.987Z,85.40
2018-03-20T05:36:16.033Z,85.87
2018-03-20T05:37:16.083Z,85.87
2018-03-20T05:38:16.130Z,84.55
2018-03-20T05:39:16.179Z,84.36
2018-03-20T05:40:16.226Z,84.36
2018-03-20T05:41:16.273Z,84.17
2018-03-20T05:42:16.346Z,84.27
2018-03-20T05:43:16.371Z,83.80
2018-03-20T05:44:16.416Z,84.55
2018-03-20T05:45:16.616Z,84.27
2018-03-20T05:46:16.514Z,83.61
2018-03-20T05:47:16.567Z,83.33
2018-03-20T05:48:17.130Z,83.33
2018-03-20T05:49:17.050Z,82.66
2018-03-20T05:50:16.706Z,82.76
2018-03-20T05:51:16.752Z,83.80
2018-03-20T05:52:16.802Z,84.27
2018-03-20T05:53:16.848Z,83.70
2018-03-20T05:54:16.917Z,84.08
2018-03-20T05:55:16.947Z,84.45
2018-03-20T05:56:17.004Z,84.36
2018-03-20T05:57:17.046Z,84.64
2018-03-20T05:58:17.091Z,84.36
2018-03-20T05:59:17.155Z,84.36
2018-03-20T06:00:17.186Z,85.11
2018-03-20T06:01:17.235Z,85.11
2018-03-20T06:02:17.283Z,84.64
2018-03-20T06:03:17.331Z,84.17
2018-03-20T06:04:17.379Z,83.80
2018-03-20T06:05:17.426Z,83.04
2018-03-20T06:06:17.530Z,82.95
2018-03-20T06:07:17.524Z,83.33
2018-03-20T06:08:17.721Z,83.04
2018-03-20T06:09:17.620Z,82.57
2018-03-20T06:10:17.669Z,83.70
2018-03-20T06:11:17.716Z,83.61
2018-03-20T06:12:17.765Z,84.36
2018-03-20T06:13:17.815Z,83.42
2018-03-20T06:14:18.011Z,83.70
2018-03-20T06:15:17.910Z,84.08
2018-03-20T06:16:17.966Z,83.80
2018-03-20T06:17:18.024Z,83.70
2018-03-20T06:18:18.060Z,83.98
2018-03-20T06:19:18.106Z,83.42
2018-03-20T06:20:18.149Z,84.45
2018-03-20T06:21:18.198Z,84.45
2018-03-20T06:22:18.246Z,84.17
2018-03-20T06:23:18.297Z,83.89
2018-03-20T06:24:18.344Z,83.04
2018-03-20T06:25:18.395Z,82.76
2018-03-20T06:26:18.440Z,83.23
2018-03-20T06:27:18.489Z,82.00
2018-03-20T06:28:18.592Z,82.19
2018-03-20T06:29:18.586Z,81.72
2018-03-20T06:30:19.008Z,81.81
2018-03-20T06:31:18.684Z,81.24
2018-03-20T06:32:19.183Z,81.43
2018-03-20T06:33:18.780Z,82.00
2018-03-20T06:34:19.535Z,82.00
2018-03-20T06:35:19.185Z,82.38
2018-03-20T06:36:18.925Z,82.57
2018-03-20T06:37:19.124Z,83.14
2018-03-20T06:38:19.022Z,82.47
2018-03-20T06:39:19.072Z,82.19
2018-03-20T06:40:19.120Z,83.23
2018-03-20T06:41:19.170Z,83.80
2018-03-20T06:42:19.217Z,84.17
2018-03-20T06:43:19.267Z,83.33
2018-03-20T06:44:19.799Z,83.70
2018-03-20T06:45:19.402Z,83.80
2018-03-20T06:46:19.412Z,83.70
2018-03-20T06:47:19.461Z,84.31
2018-03-20T06:48:19.510Z,83.80
2018-03-20T06:49:19.558Z,83.84
2018-03-20T06:50:19.608Z,83.55
2018-03-20T06:51:19.658Z,83.74
2018-03-20T06:52:19.705Z,83.23
2018-03-20T06:53:19.757Z,83.04
2018-03-20T06:54:19.955Z,83.04
2018-03-20T06:55:19.855Z,83.36
2018-03-20T06:56:19.902Z,83.74
2018-03-20T06:57:19.952Z,83.17
2018-03-20T06:58:20.002Z,82.51
2018-03-20T06:59:20.051Z,83.27
2018-03-20T07:00:20.099Z,83.08
2018-03-20T07:01:20.168Z,83.84
2018-03-20T07:02:20.202Z,83.74
2018-03-20T07:03:20.851Z,83.55
2018-03-20T07:04:20.301Z,83.74
2018-03-20T07:05:20.347Z,83.74
2018-03-20T07:06:20.397Z,83.84
2018-03-20T07:07:20.446Z,83.27
2018-03-20T07:08:20.496Z,82.89
2018-03-20T07:09:20.563Z,82.89
2018-03-20T07:10:20.606Z,83.74
2018-03-20T07:11:20.650Z,83.93
2018-03-20T07:12:20.696Z,83.93
2018-03-20T07:13:21.151Z,83.74
2018-03-20T07:14:20.795Z,83.93
2018-03-20T07:15:20.848Z,83.55
2018-03-20T07:16:21.532Z,83.74
2018-03-20T07:17:20.948Z,83.84
2018-03-20T07:18:21.307Z,84.41
2018-03-20T07:19:21.050Z,84.03
2018-03-20T07:20:21.096Z,84.12
2018-03-20T07:21:21.152Z,83.88
2018-03-20T07:22:21.198Z,84.45
2018-03-20T07:23:21.401Z,84.07
2018-03-20T07:24:21.299Z,83.78
2018-03-20T07:25:21.895Z,83.40
2018-03-20T07:26:21.927Z,83.12
2018-03-20T07:27:22.649Z,82.65
2018-03-20T07:28:21.526Z,82.61
2018-03-20T07:29:21.551Z,83.27
2018-03-20T07:30:21.602Z,83.46
2018-03-20T07:31:21.661Z,83.22
2018-03-20T07:32:21.703Z,83.03
2018-03-20T07:33:21.754Z,83.03
2018-03-20T07:34:22.578Z,82.65
2018-03-20T07:35:21.856Z,82.84
2018-03-20T07:36:22.436Z,83.40
2018-03-20T07:37:21.957Z,83.22
2018-03-20T07:38:22.321Z,83.22
2018-03-20T07:39:22.064Z,83.22
2018-03-20T07:40:22.109Z,82.46
2018-03-20T07:41:22.159Z,82.93
2018-03-20T07:42:22.213Z,81.80
2018-03-20T07:43:22.261Z,81.80
2018-03-20T07:44:22.311Z,81.80
2018-03-20T07:45:22.363Z,81.80
2018-03-20T07:46:22.415Z,81.14
2018-03-20T07:47:23.140Z,81.23
2018-03-20T07:48:22.513Z,81.04
2018-03-20T07:49:22.564Z,80.57
2018-03-20T07:50:22.632Z,80.48
2018-03-20T07:51:22.666Z,79.82
2018-03-20T07:52:22.868Z,80.10
2018-03-20T07:53:22.768Z,80.48
2018-03-20T07:54:22.844Z,80.76
2018-03-20T07:55:22.871Z,81.04
2018-03-20T07:56:22.921Z,81.04
2018-03-20T07:57:23.630Z,81.14
2018-03-20T07:58:23.112Z,80.57
2018-03-20T07:59:23.075Z,80.38
2018-03-20T08:00:23.125Z,80.76
2018-03-20T08:01:23.174Z,80.29
2018-03-20T08:02:23.225Z,80.29
2018-03-20T08:03:23.278Z,80.19
2018-03-20T08:04:23.329Z,79.91
2018-03-20T08:05:23.380Z,80.00
2018-03-20T08:06:23.431Z,80.00
2018-03-20T08:07:23.482Z,80.48
2018-03-20T08:08:23.533Z,79.91
2018-03-20T08:09:23.584Z,80.48
2018-03-20T08:10:24.325Z,80.19
2018-03-20T08:11:23.688Z,79.67
2018-03-20T08:12:23.738Z,79.67
2018-03-20T08:13:23.788Z,79.48
2018-03-20T08:14:23.840Z,79.76
2018-03-20T08:15:23.892Z,79.19
2018-03-20T08:16:23.941Z,78.72
2018-03-20T08:17:23.997Z,78.44
2018-03-20T08:18:24.045Z,77.87
2018-03-20T08:19:24.131Z,77.87
2018-03-20T08:20:24.148Z,77.02
2018-03-20T08:21:24.212Z,76.36
2018-03-20T08:22:24.252Z,76.26
2018-03-20T08:23:24.304Z,75.89
2018-03-20T08:24:24.354Z,76.45
2018-03-20T08:25:24.406Z,76.36
2018-03-20T08:26:24.458Z,77.02
2018-03-20T08:27:24.512Z,77.59
2018-03-20T08:28:24.563Z,77.40
2018-03-20T08:29:24.615Z,78.16
2018-03-20T08:30:24.671Z,78.25
2018-03-20T08:31:24.722Z,78.44
2018-03-20T08:32:24.771Z,77.97
2018-03-20T08:33:24.824Z,78.16
2018-03-20T08:34:24.877Z,78.06
2018-03-20T08:35:24.928Z,78.53
2018-03-20T08:36:24.980Z,78.91
2018-03-20T08:37:25.033Z,79.29
2018-03-20T08:38:25.085Z,79.95
2018-03-20T08:39:25.139Z,79.67
2018-03-20T08:40:25.189Z,80.14
2018-03-20T08:41:25.245Z,81.79
2018-03-20T08:42:25.297Z,80.08
2018-03-20T08:43:25.348Z,80.24
2018-03-20T08:44:25.459Z,80.18
2018-03-20T08:45:25.454Z,80.52
2018-03-20T08:46:25.506Z,81.32
2018-03-20T08:47:25.560Z,81.32
2018-03-20T08:48:25.617Z,80.75
2018-03-20T08:49:25.675Z,80.08
2018-03-20T08:50:25.749Z,80.65
2018-03-20T08:51:25.771Z,79.80
2018-03-20T08:52:25.823Z,79.61
2018-03-20T08:53:25.874Z,79.61
2018-03-20T08:54:25.943Z,79.05
2018-03-20T08:55:26.233Z,78.91
2018-03-20T08:56:26.032Z,79.19
2018-03-20T08:57:26.085Z,78.72
2018-03-20T08:58:26.139Z,78.91
2018-03-20T08:59:26.202Z,79.10
2018-03-20T09:00:26.243Z,79.14
2018-03-20T09:01:26.446Z,78.72
2018-03-20T09:02:26.349Z,78.48
2018-03-20T09:03:26.402Z,78.10
2018-03-20T09:04:26.452Z,77.82
2018-03-20T09:05:26.506Z,76.78
2018-03-20T09:06:26.570Z,77.15
2018-03-20T09:07:26.611Z,77.53
2018-03-20T09:08:26.663Z,78.01
2018-03-20T09:09:26.716Z,78.01
2018-03-20T09:10:26.768Z,77.63
2018-03-20T09:11:26.822Z,77.63
2018-03-20T09:12:26.911Z,77.06
2018-03-20T09:13:26.926Z,76.97
2018-03-20T09:14:26.980Z,78.20
2018-03-20T09:15:27.033Z,77.91
2018-03-20T09:16:27.085Z,77.25
2018-03-20T09:17:27.137Z,77.06
2018-03-20T09:18:27.191Z,76.87
2018-03-20T09:19:27.247Z,76.97
2018-03-20T09:20:27.296Z,76.50
2018-03-20T09:21:27.351Z,76.97
2018-03-20T09:22:27.403Z,76.68
2018-03-20T09:23:27.456Z,76.31
2018-03-20T09:24:27.516Z,75.74
2018-03-20T09:25:27.560Z,76.12
2018-03-20T09:26:27.613Z,75.83
2018-03-20T09:27:27.667Z,75.93
2018-03-20T09:28:27.722Z,75.59
2018-03-20T09:29:27.772Z,75.12
2018-03-20T09:30:27.826Z,74.79
2018-03-20T09:31:27.897Z,75.12
2018-03-20T09:32:27.931Z,75.07
2018-03-20T09:33:27.984Z,75.12
2018-03-20T09:34:28.038Z,75.31
2018-03-20T09:35:28.116Z,74.36
2018-03-20T09:36:28.548Z,74.26
2018-03-20T09:37:28.198Z,74.02
2018-03-20T09:38:28.252Z,72.97
2018-03-20T09:39:28.306Z,72.12
2018-03-20T09:40:28.890Z,72.22
2018-03-20T09:41:28.412Z,72.03
2018-03-20T09:42:28.466Z,72.03
2018-03-20T09:43:28.527Z,72.22
2018-03-20T09:44:28.575Z,71.93
2018-03-20T09:45:28.630Z,71.42
2018-03-20T09:46:28.934Z,72.12
2018-03-20T09:47:28.755Z,72.22
2018-03-20T09:48:28.791Z,71.74
2018-03-20T09:49:28.848Z,71.08
2018-03-20T09:50:28.901Z,71.27
2018-03-20T09:51:28.956Z,70.79
2018-03-20T09:52:29.039Z,70.26
2018-03-20T09:53:29.066Z,70.17
2018-03-20T09:54:29.120Z,69.89
2018-03-20T09:55:29.177Z,69.32
2018-03-20T09:56:29.229Z,70.36
2018-03-20T09:57:29.286Z,69.41
2018-03-20T09:58:29.592Z,69.51
2018-03-20T09:59:29.398Z,69.32
2018-03-20T10:00:29.455Z,69.41
2018-03-20T10:01:29.509Z,68.40
2018-03-20T10:02:29.563Z,68.37
2018-03-20T10:03:29.620Z,68.37
2018-03-20T10:04:29.675Z,68.65
2018-03-20T10:05:29.731Z,69.60
2018-03-20T10:06:29.788Z,69.51
2018-03-20T10:07:29.843Z,69.60
2018-03-20T10:08:29.900Z,69.41
2018-03-20T10:09:29.955Z,69.51
2018-03-20T10:10:30.017Z,69.41
2018-03-20T10:11:30.388Z,69.70
2018-03-20T10:12:30.123Z,69.76
2018-03-20T10:13:30.178Z,70.51
2018-03-20T10:14:30.236Z,70.51
2018-03-20T10:15:30.291Z,70.51
2018-03-20T10:16:30.346Z,71.08
2018-03-20T10:17:30.401Z,70.98
2018-03-20T10:18:30.456Z,71.27
2018-03-20T10:19:30.578Z,71.65
2018-03-20T10:20:30.567Z,72.03
2018-03-20T10:21:30.622Z,72.12
2018-03-20T10:22:30.678Z,71.74
2018-03-20T10:23:30.731Z,72.03
2018-03-20T10:24:30.787Z,72.60
2018-03-20T10:25:30.843Z,73.16
2018-03-20T10:26:30.897Z,73.16
2018-03-20T10:27:30.951Z,73.26
2018-03-20T10:28:31.016Z,73.26
2018-03-20T10:29:31.069Z,73.54
2018-03-20T10:30:31.131Z,73.83
2018-03-20T10:31:31.169Z,74.02
2018-03-20T10:32:31.223Z,74.02
2018-03-20T10:33:31.426Z,74.02
2018-03-20T10:34:31.331Z,73.64
2018-03-20T10:35:31.385Z,74.58
2018-03-20T10:36:31.438Z,75.43
2018-03-20T10:37:31.499Z,75.76
2018-03-20T10:38:31.547Z,76.61
2018-03-20T10:39:31.613Z,76.42
2018-03-20T10:40:31.655Z,76.04
2018-03-20T10:41:31.715Z,75.76
2018-03-20T10:42:31.762Z,76.17
2018-03-20T10:43:31.818Z,77.12
2018-03-20T10:44:31.872Z,77.78
2018-03-20T10:45:31.926Z,76.65
2018-03-20T10:46:31.981Z,76.17
2018-03-20T10:47:32.036Z,75.42
2018-03-20T10:48:32.090Z,75.23
2018-03-20T10:49:32.145Z,74.95
2018-03-20T10:50:32.202Z,75.17
2018-03-20T10:51:32.259Z,75.26
2018-03-20T10:52:32.310Z,75.07
2018-03-20T10:53:32.768Z,75.07
2018-03-20T10:54:32.475Z,74.13
2018-03-20T10:55:32.476Z,74.41
2018-03-20T10:56:32.530Z,74.13
2018-03-20T10:57:32.592Z,74.22
2018-03-20T10:58:32.666Z,74.03
2018-03-20T10:59:32.703Z,74.13
2018-03-20T11:00:32.754Z,73.84
2018-03-20T11:01:32.841Z,74.22
2018-03-20T11:02:32.868Z,74.03
2018-03-20T11:03:32.925Z,74.22
2018-03-20T11:04:32.980Z,74.13
2018-03-20T11:05:33.038Z,74.13
2018-03-20T11:06:33.094Z,74.79
2018-03-20T11:07:33.154Z,74.41
2018-03-20T11:08:33.205Z,74.22
2018-03-20T11:09:33.263Z,74.41
2018-03-20T11:10:33.321Z,74.69
2018-03-20T11:11:33.375Z,73.94
2018-03-20T11:12:33.432Z,74.51
2018-03-20T11:13:33.491Z,73.94
2018-03-20T11:14:33.547Z,73.84
2018-03-20T11:15:33.602Z,74.03
2018-03-20T11:16:33.657Z,73.88
2018-03-20T11:17:33.759Z,74.07
2018-03-20T11:18:33.772Z,74.26
2018-03-20T11:19:34.080Z,74.26
2018-03-20T11:20:33.884Z,73.94
2018-03-20T11:21:33.939Z,74.26
2018-03-20T11:22:33.997Z,74.26
2018-03-20T11:23:34.053Z,73.79
2018-03-20T11:24:34.108Z,73.97
2018-03-20T11:25:34.164Z,73.97
2018-03-20T11:26:34.226Z,74.51
2018-03-20T11:27:34.277Z,73.97
2018-03-20T11:28:34.334Z,73.97
2018-03-20T11:29:34.485Z,73.88
2018-03-20T11:30:34.446Z,73.88
2018-03-20T11:31:34.503Z,73.79
2018-03-20T11:32:34.558Z,74.07
2018-03-20T11:33:34.615Z,73.60
2018-03-20T11:34:34.672Z,74.07
2018-03-20T11:35:34.728Z,73.79
2018-03-20T11:36:34.784Z,73.69
2018-03-20T11:37:34.839Z,74.26
2018-03-20T11:38:34.896Z,74.03
2018-03-20T11:39:34.960Z,73.94
2018-03-20T11:40:35.009Z,74.79
2018-03-20T11:41:35.065Z,74.45
2018-03-20T11:42:35.120Z,74.41
2018-03-20T11:43:35.178Z,74.51
2018-03-20T11:44:35.235Z,74.92
2018-03-20T11:45:35.291Z,74.45
2018-03-20T11:46:35.347Z,73.79
2018-03-20T11:47:35.403Z,74.26
2018-03-20T11:48:35.461Z,73.94
2018-03-20T11:49:35.538Z,74.22
2018-03-20T11:50:35.571Z,74.41
2018-03-20T11:51:35.627Z,74.32
2018-03-20T11:52:35.685Z,74.13
2018-03-20T11:53:35.842Z,74.16
2018-03-20T11:54:35.795Z,74.16
2018-03-20T11:55:35.852Z,73.69
2018-03-20T11:56:35.912Z,74.16
2018-03-20T11:57:35.964Z,74.16
2018-03-20T11:58:36.035Z,74.22
2018-03-20T11:59:36.077Z,73.97
2018-03-20T12:00:36.138Z,74.35
2018-03-20T12:01:36.190Z,74.16
2018-03-20T12:02:36.245Z,74.54
2018-03-20T12:03:36.301Z,73.97
2018-03-20T12:04:36.360Z,74.26
2018-03-20T12:05:36.570Z,73.97
2018-03-20T12:06:36.469Z,73.69
2018-03-20T12:07:36.524Z,73.69
2018-03-20T12:08:36.581Z,73.88
2018-03-20T12:09:36.635Z,73.97
2018-03-20T12:10:36.692Z,73.97
2018-03-20T12:11:36.748Z,73.69
2018-03-20T12:12:37.326Z,73.60
2018-03-20T12:13:36.860Z,73.31
2018-03-20T12:14:36.917Z,72.64
2018-03-20T12:15:36.972Z,72.64
2018-03-20T12:16:37.029Z,72.36
2018-03-20T12:17:37.085Z,71.60
2018-03-20T12:18:37.143Z,71.51
2018-03-20T12:19:37.199Z,71.03
2018-03-20T12:20:37.253Z,71.51
2018-03-20T12:21:37.311Z,70.94
2018-03-20T12:22:37.368Z,70.69
2018-03-20T12:23:37.426Z,69.46
2018-03-20T12:24:37.483Z,69.08
2018-03-20T12:25:37.537Z,69.08
2018-03-20T12:26:37.595Z,67.65
2018-03-20T12:27:37.654Z,67.37
2018-03-20T12:28:37.709Z,67.27
2018-03-20T12:29:37.766Z,65.98
2018-03-20T12:30:37.824Z,64.18
2018-03-20T12:31:37.881Z,62.15
2018-03-20T12:32:37.939Z,60.60
2018-03-20T12:33:38.000Z,57.80
2018-03-20T12:34:38.565Z,55.93
2018-03-20T12:35:38.113Z,57.68
2018-03-20T12:36:38.169Z,58.85
2018-03-20T12:37:38.227Z,58.06
2018-03-20T12:38:38.288Z,55.29
2018-03-20T12:39:38.347Z,56.67
2018-03-20T12:40:38.404Z,58.63
2018-03-20T12:41:38.463Z,59.39
2018-03-20T12:42:38.524Z,59.77
2018-03-20T12:43:38.582Z,60.22
2018-03-20T12:44:38.643Z,62.31
2018-03-20T12:45:38.703Z,62.78
2018-03-20T12:46:38.819Z,62.56
2018-03-20T12:47:38.822Z,62.08
2018-03-20T12:48:38.926Z,57.89
2018-03-20T12:49:38.940Z,55.65
2018-03-20T12:50:38.999Z,55.52
2018-03-20T12:51:39.088Z,57.02
2018-03-20T12:52:39.148Z,58.12
2018-03-20T12:53:39.180Z,56.12